createdAt,value
2022-11-30T00:01:37.698Z,29.73
2022-11-30T00:04:06.101Z,29.47
2022-11-30T00:06:34.601Z,30.10
2022-11-30T00:09:02.974Z,30.03
2022-11-30T00:11:31.234Z,29.40
2022-11-30T00:14:01.533Z,30.77
2022-11-30T00:16:29.948Z,29.43
2022-11-30T00:18:58.344Z,29.10
2022-11-30T00:21:26.674Z,29.07
2022-11-30T00:23:54.979Z,31.20
2022-11-30T00:26:23.361Z,30.43
2022-11-30T00:28:51.772Z,30.07
2022-11-30T00:31:21.888Z,30.20
2022-11-30T00:33:50.396Z,30.43
2022-11-30T00:36:21.209Z,31.07
2022-11-30T00:38:50.949Z,28.03
2022-11-30T00:41:20.073Z,29.60
2022-11-30T00:43:48.657Z,28.83
2022-11-30T00:46:17.122Z,31.37
2022-11-30T00:48:47.051Z,29.63
2022-11-30T00:51:15.788Z,29.93
2022-11-30T00:53:44.442Z,30.97
2022-11-30T00:56:12.954Z,30.07
2022-11-30T00:58:41.628Z,30.90
2022-11-30T01:01:10.421Z,29.40
2022-11-30T01:03:39.057Z,29.87
2022-11-30T01:06:11.246Z,30.07
2022-11-30T01:08:39.846Z,31.00
2022-11-30T01:11:12.426Z,32.63
2022-11-30T01:13:40.769Z,32.20
2022-11-30T01:16:13.726Z,31.97
2022-11-30T01:18:42.318Z,31.43
2022-11-30T01:21:14.705Z,31.93
2022-11-30T01:23:43.064Z,32.50
2022-11-30T01:26:12.162Z,33.60
2022-11-30T01:28:41.213Z,33.50
2022-11-30T01:31:12.402Z,35.20
2022-11-30T01:33:41.939Z,33.87
2022-11-30T01:36:14.277Z,35.30
2022-11-30T01:38:44.544Z,34.37
2022-11-30T01:41:16.117Z,34.63
2022-11-30T01:43:46.550Z,34.87
2022-11-30T01:46:31.465Z,35.87
2022-11-30T01:49:08.773Z,35.00
2022-11-30T01:51:43.371Z,37.57
2022-11-30T01:54:14.038Z,37.50
2022-11-30T01:56:45.481Z,35.00
2022-11-30T01:59:14.805Z,37.57
2022-11-30T02:01:43.211Z,35.77
2022-11-30T02:04:19.775Z,36.77
2022-11-30T02:06:50.371Z,39.37
2022-11-30T02:09:21.415Z,38.50
2022-11-30T02:11:50.743Z,38.17
2022-11-30T02:14:31.852Z,38.53
2022-11-30T02:17:08.875Z,40.17
2022-11-30T02:20:20.703Z,37.17
2022-11-30T02:23:17.351Z,36.47
2022-11-30T02:25:55.139Z,37.67
2022-11-30T02:28:56.874Z,36.97
2022-11-30T02:31:31.121Z,35.77
2022-11-30T02:34:00.653Z,37.07
2022-11-30T02:36:30.825Z,38.33
2022-11-30T02:38:59.677Z,36.13
2022-11-30T02:41:27.914Z,36.87
2022-11-30T02:44:01.129Z,35.97
2022-11-30T02:46:39.254Z,37.87
2022-11-30T02:49:15.134Z,37.03
2022-11-30T02:51:45.806Z,37.33
2022-11-30T02:54:14.242Z,38.83
2022-11-30T02:56:42.604Z,38.37
2022-11-30T02:59:12.556Z,41.50
2022-11-30T03:01:42.536Z,40.60
2022-11-30T03:04:11.158Z,42.07
2022-11-30T03:06:39.420Z,40.90
2022-11-30T03:09:08.000Z,40.40
2022-11-30T03:11:37.088Z,38.80
2022-11-30T03:14:05.510Z,41.53
2022-11-30T03:16:35.294Z,40.00
2022-11-30T03:19:03.524Z,43.40
2022-11-30T03:21:31.806Z,40.13
2022-11-30T03:24:00.052Z,39.73
2022-11-30T03:26:28.437Z,40.07
2022-11-30T03:28:56.730Z,40.57
2022-11-30T03:31:25.011Z,41.87
2022-11-30T03:33:54.715Z,40.80
2022-11-30T03:36:22.981Z,40.20
2022-11-30T03:38:51.246Z,39.50
2022-11-30T03:41:20.067Z,37.13
2022-11-30T03:43:48.595Z,39.17
2022-11-30T03:46:17.096Z,40.73
2022-11-30T03:48:45.556Z,38.80
2022-11-30T03:51:15.573Z,39.40
2022-11-30T03:53:43.955Z,40.03
2022-11-30T03:56:14.345Z,38.03
2022-11-30T03:58:42.859Z,40.63
2022-11-30T04:01:13.473Z,47.50
2022-11-30T04:03:42.593Z,46.37
2022-11-30T04:06:12.866Z,48.70
2022-11-30T04:08:43.419Z,45.97
2022-11-30T04:11:12.519Z,47.63
2022-11-30T04:13:41.817Z,45.23
2022-11-30T04:16:11.051Z,47.53
2022-11-30T04:18:40.470Z,44.97
2022-11-30T04:21:09.917Z,43.73
2022-11-30T04:23:40.493Z,44.47
2022-11-30T04:26:13.593Z,46.57
2022-11-30T04:28:42.248Z,49.10
2022-11-30T04:31:11.466Z,51.43
2022-11-30T04:33:40.207Z,52.73
2022-11-30T04:36:15.086Z,59.20
2022-11-30T04:38:43.326Z,55.80
2022-11-30T04:41:13.351Z,60.33
2022-11-30T04:43:41.574Z,54.37
2022-11-30T04:46:09.985Z,52.33
2022-11-30T04:48:38.427Z,49.53
2022-11-30T04:51:08.633Z,49.27
2022-11-30T04:53:38.135Z,48.30
2022-11-30T04:56:07.895Z,47.93
2022-11-30T04:58:38.779Z,46.57
2022-11-30T05:01:07.480Z,49.97
2022-11-30T05:03:36.072Z,48.77
2022-11-30T05:06:05.020Z,48.13
2022-11-30T05:08:33.429Z,46.53
2022-11-30T05:11:01.714Z,47.10
2022-11-30T05:13:30.010Z,48.80
2022-11-30T05:15:59.717Z,47.93
2022-11-30T05:18:29.458Z,47.50
2022-11-30T05:20:57.734Z,45.33
2022-11-30T05:23:25.985Z,46.33
2022-11-30T05:25:54.280Z,46.37
2022-11-30T05:28:22.542Z,45.93
2022-11-30T05:30:50.905Z,53.10
2022-11-30T05:33:20.625Z,51.13
2022-11-30T05:35:48.913Z,51.57
2022-11-30T05:38:17.353Z,50.70
2022-11-30T05:40:45.572Z,52.23
2022-11-30T05:43:13.891Z,54.00
2022-11-30T05:45:42.347Z,49.17
2022-11-30T05:48:10.588Z,48.50
2022-11-30T05:50:40.276Z,50.27
2022-11-30T05:53:08.621Z,55.50
2022-11-30T05:55:37.124Z,55.87
2022-11-30T05:58:05.815Z,61.03
2022-11-30T06:00:34.125Z,48.80
2022-11-30T06:03:02.588Z,59.03
2022-11-30T06:05:31.220Z,65.10
2022-11-30T06:08:01.896Z,71.50
2022-11-30T06:10:30.248Z,71.70
2022-11-30T06:12:58.536Z,73.50
2022-11-30T06:15:26.769Z,61.00
2022-11-30T06:17:57.328Z,60.90
2022-11-30T06:20:25.638Z,58.03
2022-11-30T06:22:54.077Z,71.50
2022-11-30T06:25:24.076Z,59.47
2022-11-30T06:27:52.778Z,63.03
2022-11-30T06:30:21.259Z,59.20
2022-11-30T06:32:51.399Z,68.70
2022-11-30T06:35:20.430Z,71.80
2022-11-30T06:37:48.712Z,65.17
2022-11-30T06:40:17.244Z,68.80
2022-11-30T06:42:46.955Z,60.47
2022-11-30T06:45:15.321Z,66.63
2022-11-30T06:47:43.581Z,70.20
2022-11-30T06:50:13.950Z,60.30
2022-11-30T06:52:42.315Z,65.63
2022-11-30T06:55:10.917Z,58.43
2022-11-30T06:57:39.211Z,70.57
2022-11-30T07:00:12.518Z,66.47
2022-11-30T07:02:40.992Z,62.17
2022-11-30T07:05:09.793Z,71.50
2022-11-30T07:07:38.132Z,95.80
2022-11-30T07:10:07.326Z,80.90
2022-11-30T07:12:36.626Z,59.30
2022-11-30T07:15:05.611Z,63.23
2022-11-30T07:17:35.343Z,78.77
2022-11-30T07:20:03.750Z,56.47
2022-11-30T07:22:32.061Z,57.77
2022-11-30T07:25:17.703Z,59.67
2022-11-30T07:27:45.994Z,49.40
2022-11-30T07:30:14.924Z,47.57
2022-11-30T07:32:44.710Z,72.00
2022-11-30T07:35:12.979Z,48.70
2022-11-30T07:37:41.294Z,47.10
2022-11-30T07:40:10.525Z,66.43
2022-11-30T07:42:38.881Z,53.30
2022-11-30T07:45:08.177Z,59.83
2022-11-30T07:47:36.815Z,56.67
2022-11-30T07:50:07.498Z,56.47
2022-11-30T07:52:35.739Z,56.57
2022-11-30T07:55:04.088Z,54.10
2022-11-30T07:57:32.352Z,53.37
2022-11-30T08:00:00.620Z,59.40
2022-11-30T08:02:29.397Z,58.03
2022-11-30T08:04:58.759Z,61.40
2022-11-30T08:07:28.552Z,68.47
2022-11-30T08:09:56.871Z,65.13
2022-11-30T08:12:25.155Z,70.20
2022-11-30T08:15:18.897Z,71.93
2022-11-30T08:17:41.696Z,65.20
2022-11-30T08:20:11.917Z,59.00
2022-11-30T08:22:41.587Z,51.10
2022-11-30T08:25:10.665Z,60.80
2022-11-30T08:27:38.899Z,65.47
2022-11-30T08:30:08.456Z,53.87
2022-11-30T08:32:36.782Z,63.70
2022-11-30T08:35:05.654Z,59.47
2022-11-30T08:37:36.683Z,62.50
2022-11-30T08:40:07.823Z,55.43
2022-11-30T08:42:36.214Z,56.63
2022-11-30T08:45:04.848Z,83.50
2022-11-30T08:47:33.243Z,93.07
2022-11-30T08:50:01.585Z,114.70
2022-11-30T08:52:30.115Z,109.33
2022-11-30T08:54:58.373Z,121.00
2022-11-30T08:57:28.089Z,114.73
2022-11-30T08:59:56.356Z,128.87
2022-11-30T09:02:24.736Z,114.53
2022-11-30T09:04:53.716Z,120.60
2022-11-30T09:07:22.062Z,127.00
2022-11-30T09:09:50.293Z,126.37
2022-11-30T09:12:18.587Z,103.70
2022-11-30T09:14:55.784Z,105.00
2022-11-30T09:17:26.184Z,106.67
2022-11-30T09:19:55.019Z,106.93
2022-11-30T09:22:23.323Z,105.10
2022-11-30T09:24:51.604Z,104.47
2022-11-30T09:27:19.837Z,96.83
2022-11-30T09:29:49.499Z,105.23
2022-11-30T09:32:17.722Z,104.80
2022-11-30T09:34:46.463Z,96.17
2022-11-30T09:37:14.843Z,91.70
2022-11-30T09:39:43.194Z,89.40
2022-11-30T09:42:28.773Z,96.63
2022-11-30T09:45:05.390Z,105.07
2022-11-30T09:48:10.816Z,109.90
2022-11-30T09:50:42.958Z,83.20
2022-11-30T09:53:17.345Z,89.07
2022-11-30T09:55:46.401Z,83.90
2022-11-30T09:58:34.514Z,94.53
2022-11-30T10:01:18.068Z,81.07
2022-11-30T10:03:46.496Z,70.50
2022-11-30T10:06:24.218Z,67.97
2022-11-30T10:09:05.049Z,74.93
2022-11-30T10:11:45.635Z,67.03
2022-11-30T10:14:33.766Z,70.63
2022-11-30T10:17:15.865Z,60.97
2022-11-30T10:19:58.170Z,65.90
2022-11-30T10:22:31.164Z,76.50
2022-11-30T10:25:12.544Z,73.43
2022-11-30T10:27:51.180Z,65.67
2022-11-30T10:30:22.460Z,67.23
2022-11-30T10:32:54.535Z,52.50
2022-11-30T10:35:36.035Z,58.23
2022-11-30T10:38:12.998Z,50.33
2022-11-30T10:40:49.140Z,60.23
2022-11-30T10:43:23.395Z,59.73
2022-11-30T10:45:52.588Z,54.97
2022-11-30T10:48:29.894Z,62.53
2022-11-30T10:50:58.671Z,64.10
2022-11-30T10:53:27.098Z,62.33
2022-11-30T10:56:01.247Z,54.97
2022-11-30T10:58:32.667Z,52.17
2022-11-30T11:01:06.499Z,49.77
2022-11-30T11:03:36.700Z,53.87
2022-11-30T11:06:17.174Z,48.57
2022-11-30T11:08:46.998Z,50.80
2022-11-30T11:11:34.494Z,46.27
2022-11-30T11:14:20.732Z,46.13
2022-11-30T11:17:00.355Z,42.37
2022-11-30T11:19:42.131Z,41.17
2022-11-30T11:22:18.877Z,44.37
2022-11-30T11:24:47.739Z,40.17
2022-11-30T11:27:26.770Z,40.23
2022-11-30T11:30:02.960Z,39.90
2022-11-30T11:32:32.152Z,38.50
2022-11-30T11:35:02.370Z,49.13
2022-11-30T11:37:33.691Z,39.90
2022-11-30T11:40:06.854Z,39.93
2022-11-30T11:42:38.462Z,40.90
2022-11-30T11:45:16.048Z,38.80
2022-11-30T11:47:46.360Z,38.30
2022-11-30T11:51:05.662Z,37.87
2022-11-30T11:53:24.925Z,40.00
2022-11-30T11:55:57.661Z,39.03
2022-11-30T11:58:38.074Z,42.93
2022-11-30T12:01:38.722Z,42.03
2022-11-30T12:04:07.849Z,39.03
2022-11-30T12:06:38.913Z,38.43
2022-11-30T12:09:15.495Z,38.20
2022-11-30T12:11:46.380Z,38.80
2022-11-30T12:14:16.819Z,42.23
2022-11-30T12:17:09.593Z,44.83
2022-11-30T12:19:42.910Z,43.47
2022-11-30T12:22:28.197Z,44.90
2022-11-30T12:25:17.788Z,44.03
2022-11-30T12:27:54.203Z,46.00
2022-11-30T12:30:27.480Z,52.00
2022-11-30T12:33:16.599Z,45.00
2022-11-30T12:36:00.009Z,47.73
2022-11-30T12:38:43.815Z,42.87
2022-11-30T12:41:30.880Z,45.73
2022-11-30T12:44:20.028Z,44.00
2022-11-30T12:46:56.302Z,45.10
2022-11-30T12:49:38.659Z,40.73
2022-11-30T12:52:20.536Z,42.97
2022-11-30T12:54:57.680Z,39.23
2022-11-30T12:57:31.501Z,44.80
2022-11-30T13:00:07.252Z,45.00
2022-11-30T13:03:03.488Z,46.17
2022-11-30T13:05:36.456Z,43.07
2022-11-30T13:08:12.714Z,45.83
2022-11-30T13:10:46.885Z,45.70
2022-11-30T13:13:18.752Z,40.87
2022-11-30T13:15:49.212Z,43.03
2022-11-30T13:18:20.435Z,42.40
2022-11-30T13:20:54.163Z,41.77
2022-11-30T13:23:32.292Z,42.53
2022-11-30T13:26:09.855Z,36.50
2022-11-30T13:29:02.727Z,40.17
2022-11-30T13:31:36.321Z,38.97
2022-11-30T13:34:04.681Z,39.10
2022-11-30T13:36:38.069Z,39.03
2022-11-30T13:39:21.624Z,38.67
2022-11-30T13:41:53.411Z,37.53
2022-11-30T13:44:26.572Z,39.97
2022-11-30T13:46:55.223Z,40.10
2022-11-30T13:49:27.443Z,39.30
2022-11-30T13:52:20.851Z,38.47
2022-11-30T13:54:45.969Z,40.23
2022-11-30T13:58:01.262Z,42.63
2022-11-30T14:01:02.149Z,40.10
2022-11-30T14:03:31.809Z,41.43
2022-11-30T14:06:01.237Z,44.47
2022-11-30T14:08:39.196Z,42.67
2022-11-30T14:11:42.224Z,44.73
2022-11-30T14:14:47.149Z,44.73
2022-11-30T14:17:19.899Z,42.63
2022-11-30T14:19:51.996Z,41.67
2022-11-30T14:22:20.788Z,42.57
2022-11-30T14:24:50.701Z,44.00
2022-11-30T14:27:22.205Z,43.37
2022-11-30T14:29:55.307Z,46.70
2022-11-30T14:32:35.133Z,46.77
2022-11-30T14:35:09.490Z,41.07
2022-11-30T14:37:44.969Z,42.90
2022-11-30T14:40:20.179Z,42.20
2022-11-30T14:42:51.014Z,41.83
2022-11-30T14:45:25.727Z,43.07
2022-11-30T14:48:04.786Z,43.00
2022-11-30T14:50:33.519Z,53.33
2022-11-30T14:53:14.129Z,40.63
2022-11-30T14:55:49.724Z,43.53
2022-11-30T14:58:29.583Z,43.90
2022-11-30T15:00:59.384Z,45.33
2022-11-30T15:03:35.844Z,45.80
2022-11-30T15:06:07.869Z,44.30
2022-11-30T15:08:42.595Z,43.60
2022-11-30T15:11:13.397Z,44.37
2022-11-30T15:13:45.302Z,50.40
2022-11-30T15:16:21.375Z,46.83
2022-11-30T15:18:50.340Z,50.53
2022-11-30T15:21:22.430Z,51.63
2022-11-30T15:23:55.076Z,51.73
2022-11-30T15:26:28.205Z,51.20
2022-11-30T15:28:59.771Z,50.53
2022-11-30T15:31:35.798Z,80.93
2022-11-30T15:34:05.320Z,47.20
2022-11-30T15:36:35.811Z,48.33
2022-11-30T15:39:09.251Z,49.97
2022-11-30T15:41:38.440Z,53.23
2022-11-30T15:44:06.993Z,51.47
2022-11-30T15:46:45.763Z,49.03
2022-11-30T15:49:18.038Z,47.03
2022-11-30T15:51:53.197Z,49.70
2022-11-30T15:54:43.978Z,46.57
2022-11-30T15:57:13.035Z,49.20
2022-11-30T15:59:41.697Z,59.80
2022-11-30T16:02:28.652Z,47.47
2022-11-30T16:05:23.288Z,48.23
2022-11-30T16:07:54.036Z,61.60
2022-11-30T16:10:25.609Z,58.90
2022-11-30T16:12:55.600Z,62.27
2022-11-30T16:15:25.393Z,59.60
2022-11-30T16:17:58.280Z,63.47
2022-11-30T16:20:27.871Z,66.93
2022-11-30T16:22:58.887Z,68.43
2022-11-30T16:25:30.844Z,70.63
2022-11-30T16:27:59.133Z,66.70
2022-11-30T16:30:27.413Z,82.13
2022-11-30T16:32:57.166Z,66.47
2022-11-30T16:35:27.341Z,66.07
2022-11-30T16:37:55.700Z,88.53
2022-11-30T16:40:24.208Z,71.67
2022-11-30T16:42:52.911Z,67.47
2022-11-30T16:45:23.414Z,87.60
2022-11-30T16:47:51.967Z,86.40
2022-11-30T16:50:21.847Z,70.20
2022-11-30T16:52:50.175Z,67.70
2022-11-30T16:55:21.105Z,63.00
2022-11-30T16:57:50.065Z,64.23
2022-11-30T17:00:20.738Z,63.53
2022-11-30T17:02:57.500Z,66.27
2022-11-30T17:05:28.318Z,65.50
2022-11-30T17:07:56.894Z,63.77
2022-11-30T17:10:26.571Z,60.30
2022-11-30T17:12:54.894Z,62.43
2022-11-30T17:15:25.007Z,62.63
2022-11-30T17:17:57.646Z,69.67
2022-11-30T17:20:28.429Z,66.50
2022-11-30T17:22:56.707Z,64.70
2022-11-30T17:25:25.636Z,62.07
2022-11-30T17:27:54.093Z,61.87
2022-11-30T17:30:23.917Z,62.33
2022-11-30T17:32:52.364Z,63.57
2022-11-30T17:35:21.158Z,63.70
2022-11-30T17:37:50.850Z,62.87
2022-11-30T17:40:19.247Z,60.27
2022-11-30T17:42:47.561Z,66.73
2022-11-30T17:45:15.962Z,73.13
2022-11-30T17:47:44.281Z,74.70
2022-11-30T17:50:14.698Z,77.80
2022-11-30T17:52:42.908Z,72.27
2022-11-30T17:55:12.947Z,76.33
2022-11-30T17:57:41.186Z,78.27
2022-11-30T18:00:10.921Z,74.90
2022-11-30T18:02:39.318Z,81.20
2022-11-30T18:05:08.424Z,78.20
2022-11-30T18:07:37.545Z,68.93
2022-11-30T18:10:06.887Z,74.07
2022-11-30T18:12:37.203Z,87.07
2022-11-30T18:15:06.225Z,84.20
2022-11-30T18:17:34.895Z,88.50
2022-11-30T18:20:03.266Z,90.40
2022-11-30T18:22:32.806Z,93.27
2022-11-30T18:25:01.222Z,83.93
2022-11-30T18:27:29.515Z,97.17
2022-11-30T18:29:59.664Z,93.83
2022-11-30T18:32:28.107Z,91.60
2022-11-30T18:34:56.465Z,89.53
2022-11-30T18:37:24.850Z,84.83
2022-11-30T18:39:53.240Z,91.90
2022-11-30T18:42:22.693Z,95.63
2022-11-30T18:44:51.101Z,89.53
2022-11-30T18:47:20.980Z,92.73
2022-11-30T18:49:49.451Z,78.43
2022-11-30T18:52:17.733Z,101.53
2022-11-30T18:54:46.456Z,100.43
2022-11-30T18:57:15.020Z,96.40
2022-11-30T18:59:43.399Z,82.93
2022-11-30T19:02:12.052Z,88.17
2022-11-30T19:04:41.843Z,92.07
2022-11-30T19:07:10.876Z,118.70
2022-11-30T19:09:39.162Z,136.47
2022-11-30T19:12:08.313Z,91.77
2022-11-30T19:14:42.797Z,90.03
2022-11-30T19:17:12.319Z,93.57
2022-11-30T19:19:42.280Z,94.83
2022-11-30T19:22:11.017Z,86.63
2022-11-30T19:24:39.389Z,88.30
2022-11-30T19:27:07.822Z,95.27
2022-11-30T19:29:36.137Z,99.97
2022-11-30T19:32:04.737Z,101.43
2022-11-30T19:34:33.634Z,154.20
2022-11-30T19:37:03.345Z,102.83
2022-11-30T19:39:31.643Z,110.17
2022-11-30T19:42:00.045Z,135.33
2022-11-30T19:44:28.332Z,100.30
2022-11-30T19:46:56.610Z,122.30
2022-11-30T19:49:25.134Z,541.30
2022-11-30T19:51:53.445Z,141.10
2022-11-30T19:54:23.235Z,123.93
2022-11-30T19:56:51.617Z,146.13
2022-11-30T19:59:19.978Z,107.17
2022-11-30T20:01:48.320Z,209.13
2022-11-30T20:04:16.848Z,108.83
2022-11-30T20:06:45.135Z,92.03
2022-11-30T20:09:13.480Z,100.13
2022-11-30T20:11:43.400Z,89.53
2022-11-30T20:14:16.996Z,92.93
2022-11-30T20:16:45.474Z,98.80
2022-11-30T20:19:17.179Z,93.33
2022-11-30T20:21:45.595Z,102.17
2022-11-30T20:24:13.825Z,110.43
2022-11-30T20:26:44.875Z,119.43
2022-11-30T20:29:15.376Z,105.90
2022-11-30T20:31:44.563Z,121.73
2022-11-30T20:34:12.998Z,105.00
2022-11-30T20:36:41.327Z,107.03
2022-11-30T20:39:11.555Z,105.73
2022-11-30T20:41:40.211Z,106.37
2022-11-30T20:44:14.667Z,102.33
2022-11-30T20:46:43.005Z,97.50
2022-11-30T20:49:17.949Z,115.33
2022-11-30T20:51:47.072Z,123.70
2022-11-30T20:54:16.947Z,108.43
2022-11-30T20:56:47.754Z,116.80
2022-11-30T20:59:23.746Z,99.80
2022-11-30T21:01:52.389Z,112.47
2022-11-30T21:04:20.888Z,97.90
2022-11-30T21:06:49.271Z,95.83
2022-11-30T21:09:19.837Z,82.73
2022-11-30T21:11:48.947Z,97.63
2022-11-30T21:14:18.773Z,89.03
2022-11-30T21:16:48.700Z,95.37
2022-11-30T21:19:17.062Z,112.37
2022-11-30T21:21:45.442Z,110.40
2022-11-30T21:24:13.958Z,110.13
2022-11-30T21:26:44.231Z,100.93
2022-11-30T21:29:14.980Z,113.70
2022-11-30T21:31:43.672Z,114.87
2022-11-30T21:34:13.965Z,116.33
2022-11-30T21:36:42.539Z,113.43
2022-11-30T21:39:14.067Z,135.23
2022-11-30T21:41:42.701Z,87.37
2022-11-30T21:44:13.192Z,107.67
2022-11-30T21:46:42.234Z,106.53
2022-11-30T21:49:10.802Z,97.50
2022-11-30T21:51:40.465Z,85.17
2022-11-30T21:54:12.285Z,74.10
2022-11-30T21:56:42.656Z,69.57
2022-11-30T21:59:12.211Z,78.43
2022-11-30T22:01:42.738Z,70.90
2022-11-30T22:04:12.911Z,71.63
2022-11-30T22:06:45.316Z,69.10
2022-11-30T22:09:17.233Z,88.27
2022-11-30T22:11:46.690Z,77.43
2022-11-30T22:14:17.565Z,77.40
2022-11-30T22:16:48.343Z,67.50
2022-11-30T22:19:17.632Z,73.17
2022-11-30T22:21:50.318Z,75.03
2022-11-30T22:24:19.055Z,112.00
2022-11-30T22:26:49.242Z,141.80
2022-11-30T22:29:19.439Z,101.80
2022-11-30T22:31:49.930Z,99.27
2022-11-30T22:34:18.738Z,72.53
2022-11-30T22:36:48.952Z,64.20
2022-11-30T22:39:18.732Z,64.60
2022-11-30T22:41:54.242Z,65.97
2022-11-30T22:44:23.818Z,65.50
2022-11-30T22:46:52.151Z,67.60
2022-11-30T22:49:21.880Z,65.97
2022-11-30T22:51:52.337Z,66.40
2022-11-30T22:54:20.764Z,69.63
2022-11-30T22:56:49.208Z,69.30
2022-11-30T22:59:17.928Z,67.40
2022-11-30T23:01:47.766Z,71.87
2022-11-30T23:04:18.681Z,71.40
2022-11-30T23:06:49.303Z,71.13
2022-11-30T23:09:21.373Z,72.27
2022-11-30T23:11:49.892Z,77.37
2022-11-30T23:14:18.238Z,69.87
2022-11-30T23:16:46.802Z,73.57
2022-11-30T23:19:15.781Z,72.90
2022-11-30T23:21:45.640Z,76.73
2022-11-30T23:24:15.717Z,69.03
2022-11-30T23:26:46.255Z,68.63
2022-11-30T23:29:16.291Z,69.40
2022-11-30T23:31:46.047Z,73.83
2022-11-30T23:34:16.556Z,72.00
2022-11-30T23:36:45.012Z,72.87
2022-11-30T23:39:15.443Z,69.90
2022-11-30T23:41:45.798Z,67.80
2022-11-30T23:44:14.603Z,69.70
2022-11-30T23:46:43.076Z,73.83
2022-11-30T23:49:12.923Z,71.67
2022-11-30T23:51:41.271Z,70.73
2022-11-30T23:54:09.531Z,72.90
2022-11-30T23:56:37.779Z,69.97
2022-11-30T23:59:07.454Z,69.10
